sensor_id;sensor_type;location;lat;lon;timestamp;P1;durP1;ratioP1;P2;durP2;ratioP2
8683;SDS011;4379;59.744;18.206;2024-03-22T00:01:44;4.70;;;4.50;;
8683;SDS011;4379;59.744;18.206;2024-03-22T00:04:10;4.57;;;4.27;;
8683;SDS011;4379;59.744;18.206;2024-03-22T00:06:38;4.67;;;4.47;;
8683;SDS011;4379;59.744;18.206;2024-03-22T00:09:05;4.07;;;3.87;;
8683;SDS011;4379;59.744;18.206;2024-03-22T00:11:31;4.37;;;4.07;;
8683;SDS011;4379;59.744;18.206;2024-03-22T00:13:58;4.20;;;3.90;;
8683;SDS011;4379;59.744;18.206;2024-03-22T00:16:24;4.33;;;4.13;;
8683;SDS011;4379;59.744;18.206;2024-03-22T00:18:50;4.33;;;4.13;;
8683;SDS011;4379;59.744;18.206;2024-03-22T00:21:16;3.70;;;3.50;;
8683;SDS011;4379;59.744;18.206;2024-03-22T00:23:43;3.67;;;3.47;;
8683;SDS011;4379;59.744;18.206;2024-03-22T00:26:10;4.00;;;3.80;;
8683;SDS011;4379;59.744;18.206;2024-03-22T00:28:36;3.50;;;3.40;;
8683;SDS011;4379;59.744;18.206;2024-03-22T00:31:02;3.77;;;3.53;;
8683;SDS011;4379;59.744;18.206;2024-03-22T00:33:29;3.63;;;3.43;;
8683;SDS011;4379;59.744;18.206;2024-03-22T00:35:55;3.63;;;3.43;;
8683;SDS011;4379;59.744;18.206;2024-03-22T00:38:21;4.00;;;3.80;;
8683;SDS011;4379;59.744;18.206;2024-03-22T00:40:47;3.67;;;3.47;;
8683;SDS011;4379;59.744;18.206;2024-03-22T00:43:13;3.70;;;3.50;;
8683;SDS011;4379;59.744;18.206;2024-03-22T00:45:39;3.93;;;3.73;;
8683;SDS011;4379;59.744;18.206;2024-03-22T00:48:05;3.50;;;3.30;;
8683;SDS011;4379;59.744;18.206;2024-03-22T00:50:32;3.30;;;3.20;;
8683;SDS011;4379;59.744;18.206;2024-03-22T00:52:59;3.67;;;3.37;;
8683;SDS011;4379;59.744;18.206;2024-03-22T00:55:27;3.47;;;3.37;;
8683;SDS011;4379;59.744;18.206;2024-03-22T00:57:54;3.37;;;3.23;;
8683;SDS011;4379;59.744;18.206;2024-03-22T01:00:20;3.70;;;3.50;;
8683;SDS011;4379;59.744;18.206;2024-03-22T01:02:46;3.80;;;3.60;;
8683;SDS011;4379;59.744;18.206;2024-03-22T01:05:12;3.17;;;3.07;;
8683;SDS011;4379;59.744;18.206;2024-03-22T01:07:39;3.30;;;3.10;;
8683;SDS011;4379;59.744;18.206;2024-03-22T01:10:06;3.20;;;3.00;;
8683;SDS011;4379;59.744;18.206;2024-03-22T01:12:33;3.90;;;3.70;;
8683;SDS011;4379;59.744;18.206;2024-03-22T01:14:59;3.33;;;3.23;;
8683;SDS011;4379;59.744;18.206;2024-03-22T01:17:25;3.93;;;3.73;;
8683;SDS011;4379;59.744;18.206;2024-03-22T01:19:52;3.83;;;3.63;;
8683;SDS011;4379;59.744;18.206;2024-03-22T01:22:18;3.83;;;3.63;;
8683;SDS011;4379;59.744;18.206;2024-03-22T01:24:44;3.90;;;3.70;;
8683;SDS011;4379;59.744;18.206;2024-03-22T01:27:11;3.67;;;3.47;;
8683;SDS011;4379;59.744;18.206;2024-03-22T01:29:37;4.40;;;4.10;;
8683;SDS011;4379;59.744;18.206;2024-03-22T01:32:03;4.00;;;3.80;;
8683;SDS011;4379;59.744;18.206;2024-03-22T01:34:32;3.80;;;3.60;;
8683;SDS011;4379;59.744;18.206;2024-03-22T01:37:00;4.17;;;3.87;;
8683;SDS011;4379;59.744;18.206;2024-03-22T01:39:28;4.40;;;4.20;;
8683;SDS011;4379;59.744;18.206;2024-03-22T01:41:54;4.00;;;3.80;;
8683;SDS011;4379;59.744;18.206;2024-03-22T01:44:26;4.37;;;4.17;;
8683;SDS011;4379;59.744;18.206;2024-03-22T01:46:53;4.50;;;4.30;;
8683;SDS011;4379;59.744;18.206;2024-03-22T01:49:20;5.07;;;4.77;;
8683;SDS011;4379;59.744;18.206;2024-03-22T01:51:47;4.90;;;4.60;;
8683;SDS011;4379;59.744;18.206;2024-03-22T01:54:13;4.87;;;4.50;;
8683;SDS011;4379;59.744;18.206;2024-03-22T01:56:42;5.30;;;5.00;;
8683;SDS011;4379;59.744;18.206;2024-03-22T01:59:08;5.60;;;5.30;;
8683;SDS011;4379;59.744;18.206;2024-03-22T02:01:35;5.30;;;4.97;;
8683;SDS011;4379;59.744;18.206;2024-03-22T02:04:01;5.40;;;5.10;;
8683;SDS011;4379;59.744;18.206;2024-03-22T02:06:28;5.37;;;5.07;;
8683;SDS011;4379;59.744;18.206;2024-03-22T02:08:54;5.80;;;5.50;;
8683;SDS011;4379;59.744;18.206;2024-03-22T02:11:20;5.83;;;5.53;;
8683;SDS011;4379;59.744;18.206;2024-03-22T02:13:46;6.17;;;5.80;;
8683;SDS011;4379;59.744;18.206;2024-03-22T02:16:13;5.67;;;5.30;;
8683;SDS011;4379;59.744;18.206;2024-03-22T02:18:39;6.40;;;6.00;;
8683;SDS011;4379;59.744;18.206;2024-03-22T02:21:05;6.27;;;5.87;;
8683;SDS011;4379;59.744;18.206;2024-03-22T02:26:16;6.20;;;5.70;;
8683;SDS011;4379;59.744;18.206;2024-03-22T02:28:42;6.87;;;6.33;;
8683;SDS011;4379;59.744;18.206;2024-03-22T02:31:08;6.83;;;6.43;;
8683;SDS011;4379;59.744;18.206;2024-03-22T02:33:34;6.43;;;6.03;;
8683;SDS011;4379;59.744;18.206;2024-03-22T02:36:00;7.80;;;7.20;;
8683;SDS011;4379;59.744;18.206;2024-03-22T02:38:26;6.77;;;6.27;;
8683;SDS011;4379;59.744;18.206;2024-03-22T02:40:53;5.97;;;5.57;;
8683;SDS011;4379;59.744;18.206;2024-03-22T02:43:19;5.73;;;5.43;;
8683;SDS011;4379;59.744;18.206;2024-03-22T02:45:47;6.37;;;5.90;;
8683;SDS011;4379;59.744;18.206;2024-03-22T02:48:13;6.40;;;6.00;;
8683;SDS011;4379;59.744;18.206;2024-03-22T02:50:40;6.50;;;6.10;;
8683;SDS011;4379;59.744;18.206;2024-03-22T02:53:07;6.40;;;5.90;;
8683;SDS011;4379;59.744;18.206;2024-03-22T02:55:39;7.00;;;6.40;;
8683;SDS011;4379;59.744;18.206;2024-03-22T02:58:06;6.50;;;6.00;;
8683;SDS011;4379;59.744;18.206;2024-03-22T03:00:38;6.53;;;6.13;;
8683;SDS011;4379;59.744;18.206;2024-03-22T03:03:13;6.87;;;6.37;;
8683;SDS011;4379;59.744;18.206;2024-03-22T03:05:39;7.00;;;6.30;;
8683;SDS011;4379;59.744;18.206;2024-03-22T03:08:06;6.27;;;5.87;;
8683;SDS011;4379;59.744;18.206;2024-03-22T03:10:32;6.53;;;6.03;;
8683;SDS011;4379;59.744;18.206;2024-03-22T03:12:58;6.37;;;5.93;;
8683;SDS011;4379;59.744;18.206;2024-03-22T03:15:24;6.30;;;5.83;;
8683;SDS011;4379;59.744;18.206;2024-03-22T03:17:50;6.53;;;6.03;;
8683;SDS011;4379;59.744;18.206;2024-03-22T03:20:20;5.77;;;5.37;;
8683;SDS011;4379;59.744;18.206;2024-03-22T03:22:46;6.63;;;6.03;;
8683;SDS011;4379;59.744;18.206;2024-03-22T03:25:12;6.50;;;6.00;;
8683;SDS011;4379;59.744;18.206;2024-03-22T03:27:39;7.97;;;5.57;;
8683;SDS011;4379;59.744;18.206;2024-03-22T03:30:06;6.13;;;5.73;;
8683;SDS011;4379;59.744;18.206;2024-03-22T03:32:32;6.37;;;5.60;;
8683;SDS011;4379;59.744;18.206;2024-03-22T03:34:59;5.83;;;5.43;;
8683;SDS011;4379;59.744;18.206;2024-03-22T03:37:25;5.57;;;5.20;;
8683;SDS011;4379;59.744;18.206;2024-03-22T03:39:51;5.73;;;5.33;;
8683;SDS011;4379;59.744;18.206;2024-03-22T03:42:17;5.00;;;4.70;;
8683;SDS011;4379;59.744;18.206;2024-03-22T03:44:43;5.27;;;4.90;;
8683;SDS011;4379;59.744;18.206;2024-03-22T03:47:09;4.77;;;4.37;;
8683;SDS011;4379;59.744;18.206;2024-03-22T03:49:35;4.33;;;4.03;;
8683;SDS011;4379;59.744;18.206;2024-03-22T03:52:01;4.50;;;4.20;;
8683;SDS011;4379;59.744;18.206;2024-03-22T03:54:34;4.10;;;3.80;;
8683;SDS011;4379;59.744;18.206;2024-03-22T03:57:04;3.97;;;3.67;;
8683;SDS011;4379;59.744;18.206;2024-03-22T03:59:33;4.23;;;3.93;;
8683;SDS011;4379;59.744;18.206;2024-03-22T04:01:59;3.93;;;3.63;;
8683;SDS011;4379;59.744;18.206;2024-03-22T04:04:25;4.10;;;3.90;;
8683;SDS011;4379;59.744;18.206;2024-03-22T04:06:51;3.97;;;3.60;;
8683;SDS011;4379;59.744;18.206;2024-03-22T04:09:20;3.40;;;3.20;;
8683;SDS011;4379;59.744;18.206;2024-03-22T04:11:46;3.20;;;3.10;;
8683;SDS011;4379;59.744;18.206;2024-03-22T04:14:13;3.60;;;3.40;;
8683;SDS011;4379;59.744;18.206;2024-03-22T04:16:39;3.20;;;3.00;;
8683;SDS011;4379;59.744;18.206;2024-03-22T04:19:05;3.30;;;3.10;;
8683;SDS011;4379;59.744;18.206;2024-03-22T04:21:43;3.33;;;2.70;;
8683;SDS011;4379;59.744;18.206;2024-03-22T04:24:09;3.27;;;3.07;;
8683;SDS011;4379;59.744;18.206;2024-03-22T04:26:35;2.63;;;2.50;;
8683;SDS011;4379;59.744;18.206;2024-03-22T04:29:01;3.20;;;3.00;;
8683;SDS011;4379;59.744;18.206;2024-03-22T04:31:28;3.00;;;2.90;;
8683;SDS011;4379;59.744;18.206;2024-03-22T04:33:54;2.87;;;2.67;;
8683;SDS011;4379;59.744;18.206;2024-03-22T04:36:20;3.23;;;3.07;;
8683;SDS011;4379;59.744;18.206;2024-03-22T04:38:46;3.20;;;3.00;;
8683;SDS011;4379;59.744;18.206;2024-03-22T04:41:13;2.97;;;2.83;;
8683;SDS011;4379;59.744;18.206;2024-03-22T04:43:39;3.20;;;3.00;;
8683;SDS011;4379;59.744;18.206;2024-03-22T04:46:05;3.67;;;3.40;;
8683;SDS011;4379;59.744;18.206;2024-03-22T04:48:31;3.23;;;3.03;;
8683;SDS011;4379;59.744;18.206;2024-03-22T04:50:57;3.00;;;2.80;;
8683;SDS011;4379;59.744;18.206;2024-03-22T04:53:24;3.60;;;3.40;;
8683;SDS011;4379;59.744;18.206;2024-03-22T04:55:50;4.37;;;4.17;;
8683;SDS011;4379;59.744;18.206;2024-03-22T04:58:17;3.77;;;3.50;;
8683;SDS011;4379;59.744;18.206;2024-03-22T05:00:45;3.80;;;3.60;;
8683;SDS011;4379;59.744;18.206;2024-03-22T05:03:13;4.27;;;4.07;;
8683;SDS011;4379;59.744;18.206;2024-03-22T05:05:42;4.20;;;3.90;;
8683;SDS011;4379;59.744;18.206;2024-03-22T05:08:08;4.00;;;3.70;;
8683;SDS011;4379;59.744;18.206;2024-03-22T05:10:35;4.00;;;3.80;;
8683;SDS011;4379;59.744;18.206;2024-03-22T05:13:01;3.90;;;3.70;;
8683;SDS011;4379;59.744;18.206;2024-03-22T05:15:28;3.80;;;3.60;;
8683;SDS011;4379;59.744;18.206;2024-03-22T05:17:56;4.17;;;3.97;;
8683;SDS011;4379;59.744;18.206;2024-03-22T05:20:23;3.83;;;3.67;;
8683;SDS011;4379;59.744;18.206;2024-03-22T05:22:49;4.90;;;4.60;;
8683;SDS011;4379;59.744;18.206;2024-03-22T05:25:15;5.50;;;4.33;;
8683;SDS011;4379;59.744;18.206;2024-03-22T05:27:42;4.73;;;4.43;;
8683;SDS011;4379;59.744;18.206;2024-03-22T05:30:09;5.13;;;4.83;;
8683;SDS011;4379;59.744;18.206;2024-03-22T05:32:36;5.10;;;4.77;;
8683;SDS011;4379;59.744;18.206;2024-03-22T05:35:03;5.37;;;5.03;;
8683;SDS011;4379;59.744;18.206;2024-03-22T05:37:29;5.70;;;5.30;;
8683;SDS011;4379;59.744;18.206;2024-03-22T05:39:55;5.57;;;5.13;;
8683;SDS011;4379;59.744;18.206;2024-03-22T05:42:22;5.63;;;5.17;;
8683;SDS011;4379;59.744;18.206;2024-03-22T05:44:48;5.97;;;5.57;;
8683;SDS011;4379;59.744;18.206;2024-03-22T05:47:14;6.50;;;6.00;;
8683;SDS011;4379;59.744;18.206;2024-03-22T05:49:40;6.10;;;5.70;;
8683;SDS011;4379;59.744;18.206;2024-03-22T05:52:06;6.30;;;5.90;;
8683;SDS011;4379;59.744;18.206;2024-03-22T05:54:32;6.43;;;6.03;;
8683;SDS011;4379;59.744;18.206;2024-03-22T05:56:58;7.20;;;6.47;;
8683;SDS011;4379;59.744;18.206;2024-03-22T05:59:26;7.07;;;6.67;;
8683;SDS011;4379;59.744;18.206;2024-03-22T06:01:53;6.17;;;5.77;;
8683;SDS011;4379;59.744;18.206;2024-03-22T06:04:22;6.43;;;5.90;;
8683;SDS011;4379;59.744;18.206;2024-03-22T06:06:49;6.13;;;5.73;;
8683;SDS011;4379;59.744;18.206;2024-03-22T06:09:15;6.23;;;5.83;;
8683;SDS011;4379;59.744;18.206;2024-03-22T06:11:49;6.17;;;5.77;;
8683;SDS011;4379;59.744;18.206;2024-03-22T06:14:16;6.83;;;6.33;;
8683;SDS011;4379;59.744;18.206;2024-03-22T06:16:42;7.17;;;6.57;;
8683;SDS011;4379;59.744;18.206;2024-03-22T06:19:09;6.83;;;6.33;;
8683;SDS011;4379;59.744;18.206;2024-03-22T06:21:35;6.63;;;6.13;;
8683;SDS011;4379;59.744;18.206;2024-03-22T06:24:01;6.80;;;6.17;;
8683;SDS011;4379;59.744;18.206;2024-03-22T06:26:27;6.40;;;6.00;;
8683;SDS011;4379;59.744;18.206;2024-03-22T06:28:53;6.03;;;5.63;;
8683;SDS011;4379;59.744;18.206;2024-03-22T06:31:20;6.50;;;6.10;;
8683;SDS011;4379;59.744;18.206;2024-03-22T06:33:46;7.00;;;6.43;;
8683;SDS011;4379;59.744;18.206;2024-03-22T06:36:12;6.97;;;6.57;;
8683;SDS011;4379;59.744;18.206;2024-03-22T06:38:38;6.67;;;6.07;;
8683;SDS011;4379;59.744;18.206;2024-03-22T06:41:05;7.60;;;6.93;;
8683;SDS011;4379;59.744;18.206;2024-03-22T06:46:14;6.37;;;5.90;;
8683;SDS011;4379;59.744;18.206;2024-03-22T06:48:53;6.03;;;5.63;;
8683;SDS011;4379;59.744;18.206;2024-03-22T06:51:26;5.80;;;5.40;;
8683;SDS011;4379;59.744;18.206;2024-03-22T06:53:52;5.87;;;5.43;;
8683;SDS011;4379;59.744;18.206;2024-03-22T06:56:18;5.83;;;5.33;;
8683;SDS011;4379;59.744;18.206;2024-03-22T06:58:44;5.50;;;5.20;;
8683;SDS011;4379;59.744;18.206;2024-03-22T07:01:10;5.03;;;4.63;;
8683;SDS011;4379;59.744;18.206;2024-03-22T07:03:37;5.20;;;4.90;;
8683;SDS011;4379;59.744;18.206;2024-03-22T07:06:03;4.70;;;4.40;;
8683;SDS011;4379;59.744;18.206;2024-03-22T07:08:33;5.00;;;4.57;;
8683;SDS011;4379;59.744;18.206;2024-03-22T07:10:59;4.73;;;4.43;;
8683;SDS011;4379;59.744;18.206;2024-03-22T07:13:25;4.47;;;4.07;;
8683;SDS011;4379;59.744;18.206;2024-03-22T07:15:51;5.20;;;4.80;;
8683;SDS011;4379;59.744;18.206;2024-03-22T07:18:17;4.97;;;4.67;;
8683;SDS011;4379;59.744;18.206;2024-03-22T07:20:45;5.03;;;4.63;;
8683;SDS011;4379;59.744;18.206;2024-03-22T07:23:11;4.83;;;4.60;;
8683;SDS011;4379;59.744;18.206;2024-03-22T07:25:37;5.47;;;4.97;;
8683;SDS011;4379;59.744;18.206;2024-03-22T07:28:06;5.73;;;5.20;;
8683;SDS011;4379;59.744;18.206;2024-03-22T07:30:35;5.00;;;4.60;;
8683;SDS011;4379;59.744;18.206;2024-03-22T07:33:02;5.30;;;5.00;;
8683;SDS011;4379;59.744;18.206;2024-03-22T07:35:29;4.83;;;4.50;;
8683;SDS011;4379;59.744;18.206;2024-03-22T07:37:56;5.00;;;4.60;;
8683;SDS011;4379;59.744;18.206;2024-03-22T07:40:22;4.70;;;4.40;;
8683;SDS011;4379;59.744;18.206;2024-03-22T07:42:48;4.37;;;4.07;;
8683;SDS011;4379;59.744;18.206;2024-03-22T07:45:14;4.20;;;4.00;;
8683;SDS011;4379;59.744;18.206;2024-03-22T07:47:40;4.40;;;4.20;;
8683;SDS011;4379;59.744;18.206;2024-03-22T07:50:09;4.43;;;4.13;;
8683;SDS011;4379;59.744;18.206;2024-03-22T07:52:35;4.73;;;4.43;;
8683;SDS011;4379;59.744;18.206;2024-03-22T07:55:01;4.80;;;4.50;;
8683;SDS011;4379;59.744;18.206;2024-03-22T07:57:31;4.30;;;4.00;;
8683;SDS011;4379;59.744;18.206;2024-03-22T07:59:57;4.37;;;4.10;;
8683;SDS011;4379;59.744;18.206;2024-03-22T08:02:23;4.57;;;4.27;;
8683;SDS011;4379;59.744;18.206;2024-03-22T08:04:49;4.87;;;4.57;;
8683;SDS011;4379;59.744;18.206;2024-03-22T08:07:16;4.80;;;4.50;;
8683;SDS011;4379;59.744;18.206;2024-03-22T08:09:42;4.50;;;4.27;;
8683;SDS011;4379;59.744;18.206;2024-03-22T08:12:08;4.40;;;4.10;;
8683;SDS011;4379;59.744;18.206;2024-03-22T08:14:34;4.57;;;4.27;;
8683;SDS011;4379;59.744;18.206;2024-03-22T08:17:00;4.17;;;3.93;;
8683;SDS011;4379;59.744;18.206;2024-03-22T08:19:26;4.00;;;3.80;;
8683;SDS011;4379;59.744;18.206;2024-03-22T08:21:53;4.30;;;4.00;;
8683;SDS011;4379;59.744;18.206;2024-03-22T08:24:19;3.77;;;3.57;;
8683;SDS011;4379;59.744;18.206;2024-03-22T08:26:46;4.13;;;3.90;;
8683;SDS011;4379;59.744;18.206;2024-03-22T08:29:13;3.70;;;3.50;;
8683;SDS011;4379;59.744;18.206;2024-03-22T08:31:40;3.70;;;3.50;;
8683;SDS011;4379;59.744;18.206;2024-03-22T08:34:07;3.30;;;3.10;;
8683;SDS011;4379;59.744;18.206;2024-03-22T08:36:34;3.20;;;3.03;;
8683;SDS011;4379;59.744;18.206;2024-03-22T08:39:00;3.30;;;3.10;;
8683;SDS011;4379;59.744;18.206;2024-03-22T08:41:26;3.00;;;2.73;;
8683;SDS011;4379;59.744;18.206;2024-03-22T08:43:53;3.10;;;3.00;;
8683;SDS011;4379;59.744;18.206;2024-03-22T08:46:19;2.83;;;2.73;;
8683;SDS011;4379;59.744;18.206;2024-03-22T08:48:47;3.47;;;3.27;;
8683;SDS011;4379;59.744;18.206;2024-03-22T08:51:13;3.30;;;3.10;;
8683;SDS011;4379;59.744;18.206;2024-03-22T08:53:39;2.73;;;2.63;;
8683;SDS011;4379;59.744;18.206;2024-03-22T08:56:06;3.27;;;3.07;;
8683;SDS011;4379;59.744;18.206;2024-03-22T08:58:33;2.97;;;2.87;;
8683;SDS011;4379;59.744;18.206;2024-03-22T09:00:59;2.67;;;2.57;;
8683;SDS011;4379;59.744;18.206;2024-03-22T09:03:25;2.70;;;2.60;;
8683;SDS011;4379;59.744;18.206;2024-03-22T09:05:52;2.60;;;2.50;;
8683;SDS011;4379;59.744;18.206;2024-03-22T09:08:19;2.80;;;2.70;;
8683;SDS011;4379;59.744;18.206;2024-03-22T09:10:47;2.37;;;2.27;;
8683;SDS011;4379;59.744;18.206;2024-03-22T09:13:14;2.20;;;2.10;;
8683;SDS011;4379;59.744;18.206;2024-03-22T09:15:40;2.20;;;2.10;;
8683;SDS011;4379;59.744;18.206;2024-03-22T09:18:06;2.60;;;2.50;;
8683;SDS011;4379;59.744;18.206;2024-03-22T09:20:32;2.53;;;2.43;;
8683;SDS011;4379;59.744;18.206;2024-03-22T09:22:59;2.70;;;2.60;;
8683;SDS011;4379;59.744;18.206;2024-03-22T09:25:25;2.40;;;2.30;;
8683;SDS011;4379;59.744;18.206;2024-03-22T09:27:51;2.97;;;2.77;;
8683;SDS011;4379;59.744;18.206;2024-03-22T09:30:17;2.67;;;2.47;;
8683;SDS011;4379;59.744;18.206;2024-03-22T09:32:43;2.60;;;2.50;;
8683;SDS011;4379;59.744;18.206;2024-03-22T09:35:09;2.50;;;2.40;;
8683;SDS011;4379;59.744;18.206;2024-03-22T09:37:37;2.77;;;2.60;;
8683;SDS011;4379;59.744;18.206;2024-03-22T09:40:03;2.00;;;1.90;;
8683;SDS011;4379;59.744;18.206;2024-03-22T09:42:33;2.30;;;2.20;;
8683;SDS011;4379;59.744;18.206;2024-03-22T09:45:02;2.20;;;2.10;;
8683;SDS011;4379;59.744;18.206;2024-03-22T09:47:28;2.10;;;2.00;;
8683;SDS011;4379;59.744;18.206;2024-03-22T09:49:55;2.50;;;2.40;;
8683;SDS011;4379;59.744;18.206;2024-03-22T09:52:22;2.43;;;2.33;;
8683;SDS011;4379;59.744;18.206;2024-03-22T09:54:49;2.80;;;2.60;;
8683;SDS011;4379;59.744;18.206;2024-03-22T09:57:16;2.63;;;2.53;;
8683;SDS011;4379;59.744;18.206;2024-03-22T09:59:45;2.90;;;2.80;;
8683;SDS011;4379;59.744;18.206;2024-03-22T10:02:12;2.53;;;2.43;;
8683;SDS011;4379;59.744;18.206;2024-03-22T10:04:39;2.53;;;2.43;;
8683;SDS011;4379;59.744;18.206;2024-03-22T10:07:09;2.27;;;2.17;;
8683;SDS011;4379;59.744;18.206;2024-03-22T10:09:39;3.03;;;2.83;;
8683;SDS011;4379;59.744;18.206;2024-03-22T10:12:09;2.90;;;2.80;;
8683;SDS011;4379;59.744;18.206;2024-03-22T10:14:35;3.50;;;3.30;;
8683;SDS011;4379;59.744;18.206;2024-03-22T10:17:02;3.70;;;3.50;;
8683;SDS011;4379;59.744;18.206;2024-03-22T10:19:29;3.67;;;3.47;;
8683;SDS011;4379;59.744;18.206;2024-03-22T10:24:33;3.77;;;3.47;;
8683;SDS011;4379;59.744;18.206;2024-03-22T10:26:59;4.27;;;3.97;;
8683;SDS011;4379;59.744;18.206;2024-03-22T10:29:26;4.00;;;3.80;;
8683;SDS011;4379;59.744;18.206;2024-03-22T10:31:53;3.87;;;3.60;;
8683;SDS011;4379;59.744;18.206;2024-03-22T10:34:23;3.97;;;3.67;;
8683;SDS011;4379;59.744;18.206;2024-03-22T10:36:50;3.90;;;3.70;;
8683;SDS011;4379;59.744;18.206;2024-03-22T10:39:17;4.40;;;4.10;;
8683;SDS011;4379;59.744;18.206;2024-03-22T10:41:46;4.00;;;3.80;;
8683;SDS011;4379;59.744;18.206;2024-03-22T10:44:14;4.50;;;4.30;;
8683;SDS011;4379;59.744;18.206;2024-03-22T10:46:46;4.27;;;3.90;;
8683;SDS011;4379;59.744;18.206;2024-03-22T10:49:17;4.53;;;4.23;;
8683;SDS011;4379;59.744;18.206;2024-03-22T10:51:49;4.47;;;4.27;;
8683;SDS011;4379;59.744;18.206;2024-03-22T10:54:20;3.90;;;3.70;;
8683;SDS011;4379;59.744;18.206;2024-03-22T10:56:49;3.80;;;3.60;;
8683;SDS011;4379;59.744;18.206;2024-03-22T10:59:19;3.90;;;3.70;;
8683;SDS011;4379;59.744;18.206;2024-03-22T11:01:48;4.00;;;3.80;;
8683;SDS011;4379;59.744;18.206;2024-03-22T11:04:16;4.27;;;3.87;;
8683;SDS011;4379;59.744;18.206;2024-03-22T11:06:49;4.07;;;3.87;;
8683;SDS011;4379;59.744;18.206;2024-03-22T11:09:23;4.00;;;3.80;;
8683;SDS011;4379;59.744;18.206;2024-03-22T11:11:55;3.60;;;3.40;;
8683;SDS011;4379;59.744;18.206;2024-03-22T11:14:26;3.97;;;3.73;;
8683;SDS011;4379;59.744;18.206;2024-03-22T11:16:52;3.73;;;3.53;;
8683;SDS011;4379;59.744;18.206;2024-03-22T11:19:18;3.63;;;3.43;;
8683;SDS011;4379;59.744;18.206;2024-03-22T11:21:44;3.27;;;3.17;;
8683;SDS011;4379;59.744;18.206;2024-03-22T11:24:10;3.30;;;3.20;;
8683;SDS011;4379;59.744;18.206;2024-03-22T11:26:36;3.10;;;3.00;;
8683;SDS011;4379;59.744;18.206;2024-03-22T11:29:03;3.10;;;3.00;;
8683;SDS011;4379;59.744;18.206;2024-03-22T11:31:29;2.80;;;2.70;;
8683;SDS011;4379;59.744;18.206;2024-03-22T11:33:56;3.50;;;3.30;;
8683;SDS011;4379;59.744;18.206;2024-03-22T11:36:22;3.00;;;2.80;;
8683;SDS011;4379;59.744;18.206;2024-03-22T11:38:49;3.33;;;3.13;;
8683;SDS011;4379;59.744;18.206;2024-03-22T11:41:18;3.37;;;3.27;;
8683;SDS011;4379;59.744;18.206;2024-03-22T11:43:50;3.47;;;3.27;;
8683;SDS011;4379;59.744;18.206;2024-03-22T11:46:17;2.90;;;2.80;;
8683;SDS011;4379;59.744;18.206;2024-03-22T11:48:44;2.63;;;2.53;;
8683;SDS011;4379;59.744;18.206;2024-03-22T11:51:10;2.83;;;2.73;;
8683;SDS011;4379;59.744;18.206;2024-03-22T11:53:36;2.70;;;2.50;;
8683;SDS011;4379;59.744;18.206;2024-03-22T11:56:02;2.80;;;2.70;;
8683;SDS011;4379;59.744;18.206;2024-03-22T11:58:30;2.53;;;2.43;;
8683;SDS011;4379;59.744;18.206;2024-03-22T12:00:56;2.67;;;2.57;;
8683;SDS011;4379;59.744;18.206;2024-03-22T12:03:23;2.70;;;2.60;;
8683;SDS011;4379;59.744;18.206;2024-03-22T12:05:52;2.57;;;2.40;;
8683;SDS011;4379;59.744;18.206;2024-03-22T12:08:20;2.37;;;2.17;;
8683;SDS011;4379;59.744;18.206;2024-03-22T12:10:52;2.47;;;2.37;;
8683;SDS011;4379;59.744;18.206;2024-03-22T12:13:18;2.43;;;2.33;;
8683;SDS011;4379;59.744;18.206;2024-03-22T12:15:44;2.40;;;2.30;;
8683;SDS011;4379;59.744;18.206;2024-03-22T12:18:10;2.23;;;2.13;;
8683;SDS011;4379;59.744;18.206;2024-03-22T12:20:39;2.60;;;2.40;;
8683;SDS011;4379;59.744;18.206;2024-03-22T12:23:05;2.40;;;2.20;;
8683;SDS011;4379;59.744;18.206;2024-03-22T12:25:31;2.10;;;2.00;;
8683;SDS011;4379;59.744;18.206;2024-03-22T12:27:57;2.43;;;2.27;;
8683;SDS011;4379;59.744;18.206;2024-03-22T12:30:23;3.03;;;2.90;;
8683;SDS011;4379;59.744;18.206;2024-03-22T12:32:51;2.40;;;2.30;;
8683;SDS011;4379;59.744;18.206;2024-03-22T12:35:19;2.30;;;2.20;;
8683;SDS011;4379;59.744;18.206;2024-03-22T12:37:45;2.40;;;2.30;;
8683;SDS011;4379;59.744;18.206;2024-03-22T12:40:13;2.40;;;2.30;;
8683;SDS011;4379;59.744;18.206;2024-03-22T12:42:40;1.97;;;1.87;;
8683;SDS011;4379;59.744;18.206;2024-03-22T12:45:06;2.20;;;2.10;;
8683;SDS011;4379;59.744;18.206;2024-03-22T12:47:36;2.23;;;2.13;;
8683;SDS011;4379;59.744;18.206;2024-03-22T12:50:04;2.00;;;1.90;;
8683;SDS011;4379;59.744;18.206;2024-03-22T12:52:31;2.00;;;1.90;;
8683;SDS011;4379;59.744;18.206;2024-03-22T12:54:57;2.30;;;2.20;;
8683;SDS011;4379;59.744;18.206;2024-03-22T12:57:23;1.87;;;1.87;;
8683;SDS011;4379;59.744;18.206;2024-03-22T12:59:49;1.70;;;1.70;;
8683;SDS011;4379;59.744;18.206;2024-03-22T13:02:15;2.00;;;1.90;;
8683;SDS011;4379;59.744;18.206;2024-03-22T13:04:41;2.00;;;1.90;;
8683;SDS011;4379;59.744;18.206;2024-03-22T13:07:09;1.70;;;1.60;;
8683;SDS011;4379;59.744;18.206;2024-03-22T13:09:34;1.50;;;1.50;;
8683;SDS011;4379;59.744;18.206;2024-03-22T13:12:01;1.90;;;1.80;;
8683;SDS011;4379;59.744;18.206;2024-03-22T13:14:28;1.50;;;1.50;;
8683;SDS011;4379;59.744;18.206;2024-03-22T13:16:54;1.77;;;1.77;;
8683;SDS011;4379;59.744;18.206;2024-03-22T13:19:20;1.43;;;1.43;;
8683;SDS011;4379;59.744;18.206;2024-03-22T13:21:46;1.70;;;1.53;;
8683;SDS011;4379;59.744;18.206;2024-03-22T13:24:14;1.60;;;1.50;;
8683;SDS011;4379;59.744;18.206;2024-03-22T13:26:40;1.63;;;1.30;;
8683;SDS011;4379;59.744;18.206;2024-03-22T13:29:07;1.30;;;1.30;;
8683;SDS011;4379;59.744;18.206;2024-03-22T13:31:33;1.47;;;1.37;;
8683;SDS011;4379;59.744;18.206;2024-03-22T13:33:59;1.20;;;1.03;;
8683;SDS011;4379;59.744;18.206;2024-03-22T13:36:25;1.20;;;1.20;;
8683;SDS011;4379;59.744;18.206;2024-03-22T13:38:51;1.40;;;1.30;;
8683;SDS011;4379;59.744;18.206;2024-03-22T13:41:18;1.23;;;1.23;;
8683;SDS011;4379;59.744;18.206;2024-03-22T13:43:44;1.53;;;1.43;;
8683;SDS011;4379;59.744;18.206;2024-03-22T13:46:14;1.27;;;1.27;;
8683;SDS011;4379;59.744;18.206;2024-03-22T13:48:42;1.50;;;1.40;;
8683;SDS011;4379;59.744;18.206;2024-03-22T13:51:10;1.43;;;1.33;;
8683;SDS011;4379;59.744;18.206;2024-03-22T13:53:36;1.23;;;1.23;;
8683;SDS011;4379;59.744;18.206;2024-03-22T13:56:03;1.87;;;1.37;;
8683;SDS011;4379;59.744;18.206;2024-03-22T13:58:29;1.60;;;1.30;;
8683;SDS011;4379;59.744;18.206;2024-03-22T14:00:55;1.77;;;1.67;;
8683;SDS011;4379;59.744;18.206;2024-03-22T14:03:21;1.70;;;1.60;;
8683;SDS011;4379;59.744;18.206;2024-03-22T14:05:47;2.20;;;2.00;;
8683;SDS011;4379;59.744;18.206;2024-03-22T14:08:13;1.57;;;1.47;;
8683;SDS011;4379;59.744;18.206;2024-03-22T14:10:39;1.60;;;1.50;;
8683;SDS011;4379;59.744;18.206;2024-03-22T14:13:05;1.93;;;1.50;;
8683;SDS011;4379;59.744;18.206;2024-03-22T14:15:33;1.80;;;1.70;;
8683;SDS011;4379;59.744;18.206;2024-03-22T14:18:01;1.83;;;1.70;;
8683;SDS011;4379;59.744;18.206;2024-03-22T14:20:28;1.77;;;1.67;;
8683;SDS011;4379;59.744;18.206;2024-03-22T14:22:54;2.63;;;1.57;;
8683;SDS011;4379;59.744;18.206;2024-03-22T14:25:21;1.67;;;1.30;;
8683;SDS011;4379;59.744;18.206;2024-03-22T14:27:50;2.77;;;1.53;;
8683;SDS011;4379;59.744;18.206;2024-03-22T14:30:16;2.00;;;1.83;;
8683;SDS011;4379;59.744;18.206;2024-03-22T14:32:46;1.83;;;1.60;;
8683;SDS011;4379;59.744;18.206;2024-03-22T14:35:12;2.40;;;1.63;;
8683;SDS011;4379;59.744;18.206;2024-03-22T14:37:38;2.10;;;1.57;;
8683;SDS011;4379;59.744;18.206;2024-03-22T14:40:05;3.87;;;1.70;;
8683;SDS011;4379;59.744;18.206;2024-03-22T14:42:36;1.63;;;1.53;;
8683;SDS011;4379;59.744;18.206;2024-03-22T14:45:03;1.53;;;1.23;;
8683;SDS011;4379;59.744;18.206;2024-03-22T14:47:29;1.37;;;1.30;;
8683;SDS011;4379;59.744;18.206;2024-03-22T14:49:55;1.80;;;1.57;;
8683;SDS011;4379;59.744;18.206;2024-03-22T14:52:22;1.73;;;1.50;;
8683;SDS011;4379;59.744;18.206;2024-03-22T14:54:48;2.73;;;1.53;;
8683;SDS011;4379;59.744;18.206;2024-03-22T14:57:17;1.80;;;1.70;;
8683;SDS011;4379;59.744;18.206;2024-03-22T14:59:43;2.33;;;1.60;;
8683;SDS011;4379;59.744;18.206;2024-03-22T15:02:09;2.53;;;1.67;;
8683;SDS011;4379;59.744;18.206;2024-03-22T15:04:35;3.07;;;1.90;;
8683;SDS011;4379;59.744;18.206;2024-03-22T15:07:01;2.73;;;1.40;;